createdAt,value
2022-09-23T00:01:19.192Z,45.43
2022-09-23T00:03:49.124Z,45.44
2022-09-23T00:06:21.644Z,45.57
2022-09-23T00:08:51.440Z,45.43
2022-09-23T00:11:22.451Z,45.63
2022-09-23T00:13:53.782Z,45.72
2022-09-23T00:16:26.485Z,45.69
2022-09-23T00:18:54.913Z,45.62
2022-09-23T00:21:25.433Z,45.70
2022-09-23T00:23:54.907Z,45.73
2022-09-23T00:26:24.698Z,45.70
2022-09-23T00:28:53.405Z,45.82
2022-09-23T00:31:24.551Z,45.93
2022-09-23T00:33:57.763Z,45.78
2022-09-23T00:36:28.906Z,45.82
2022-09-23T00:38:57.738Z,45.82
2022-09-23T00:41:27.152Z,45.98
2022-09-23T00:43:58.773Z,45.88
2022-09-23T00:46:35.487Z,45.84
2022-09-23T00:49:10.369Z,45.85
2022-09-23T00:51:45.754Z,45.98
2022-09-23T00:54:14.479Z,45.88
2022-09-23T00:56:42.851Z,46.00
2022-09-23T00:59:11.569Z,46.04
2022-09-23T01:01:40.915Z,46.37
2022-09-23T01:04:09.927Z,46.10
2022-09-23T01:06:39.644Z,46.15
2022-09-23T01:09:08.126Z,46.16
2022-09-23T01:11:48.445Z,46.25
2022-09-23T01:14:38.038Z,46.18
2022-09-23T01:17:17.316Z,46.11
2022-09-23T01:20:29.562Z,46.19
2022-09-23T01:23:14.268Z,46.35
2022-09-23T01:26:08.228Z,46.41
2022-09-23T01:29:03.453Z,46.41
2022-09-23T01:31:44.516Z,46.22
2022-09-23T01:34:16.734Z,46.39
2022-09-23T01:36:51.709Z,46.39
2022-09-23T01:39:35.232Z,46.67
2022-09-23T01:42:17.020Z,46.50
2022-09-23T01:44:52.946Z,46.65
2022-09-23T01:47:29.358Z,46.49
2022-09-23T01:50:02.939Z,46.52
2022-09-23T01:52:48.295Z,46.55
2022-09-23T01:55:25.902Z,46.57
2022-09-23T01:58:02.519Z,46.62
2022-09-23T02:00:36.051Z,46.71
2022-09-23T02:03:15.252Z,46.76
2022-09-23T02:05:49.280Z,46.79
2022-09-23T02:08:24.107Z,46.72
2022-09-23T02:10:58.779Z,46.76
2022-09-23T02:13:33.564Z,46.70
2022-09-23T02:16:08.686Z,46.75
2022-09-23T02:18:46.567Z,46.70
2022-09-23T02:21:18.859Z,46.70
2022-09-23T02:23:53.211Z,46.85
2022-09-23T02:26:29.588Z,46.79
2022-09-23T02:29:09.146Z,47.02
2022-09-23T02:31:44.202Z,47.07
2022-09-23T02:34:25.037Z,46.85
2022-09-23T02:37:17.162Z,46.95
2022-09-23T02:39:58.705Z,46.92
2022-09-23T02:42:38.922Z,46.88
2022-09-23T02:45:08.299Z,47.00
2022-09-23T02:47:41.603Z,47.02
2022-09-23T02:50:12.140Z,47.04
2022-09-23T02:52:41.074Z,47.08
2022-09-23T02:55:13.105Z,46.97
2022-09-23T02:57:41.494Z,47.08
2022-09-23T03:00:12.482Z,47.16
2022-09-23T03:03:03.936Z,47.24
2022-09-23T03:05:39.955Z,47.22
2022-09-23T03:08:25.809Z,47.15
2022-09-23T03:11:01.966Z,47.37
2022-09-23T03:13:38.536Z,47.22
2022-09-23T03:16:16.993Z,47.24
2022-09-23T03:18:54.114Z,47.28
2022-09-23T03:21:28.373Z,47.36
2022-09-23T03:24:00.544Z,47.45
2022-09-23T03:26:34.276Z,47.39
2022-09-23T03:29:05.065Z,47.45
2022-09-23T03:31:34.554Z,47.34
2022-09-23T03:34:09.682Z,47.46
2022-09-23T03:36:53.990Z,47.59
2022-09-23T03:39:34.269Z,47.46
2022-09-23T03:42:12.674Z,47.78
2022-09-23T03:44:45.488Z,47.79
2022-09-23T03:47:14.917Z,47.65
2022-09-23T03:49:48.417Z,47.67
2022-09-23T03:52:19.210Z,47.87
2022-09-23T03:54:47.762Z,47.81
2022-09-23T03:57:16.470Z,47.69
2022-09-23T03:59:44.904Z,47.85
2022-09-23T04:02:13.328Z,47.92
2022-09-23T04:04:41.770Z,47.81
2022-09-23T04:07:11.163Z,47.89
2022-09-23T04:09:42.021Z,47.97
2022-09-23T04:12:14.850Z,47.99
2022-09-23T04:14:43.547Z,47.79
2022-09-23T04:17:12.905Z,47.98
2022-09-23T04:19:41.402Z,48.05
2022-09-23T04:22:10.618Z,47.93
2022-09-23T04:24:40.341Z,48.13
2022-09-23T04:27:08.649Z,47.93
2022-09-23T04:29:36.987Z,48.04
2022-09-23T04:32:05.419Z,48.12
2022-09-23T04:34:33.903Z,48.15
2022-09-23T04:37:02.193Z,48.15
2022-09-23T04:39:30.511Z,48.12
2022-09-23T04:42:00.236Z,48.11
2022-09-23T04:44:29.598Z,48.25
2022-09-23T04:46:58.477Z,48.41
2022-09-23T04:49:27.032Z,48.25
2022-09-23T04:51:55.863Z,48.43
2022-09-23T04:54:24.182Z,48.37
2022-09-23T04:56:52.558Z,48.42
2022-09-23T04:59:22.219Z,48.28
2022-09-23T05:01:51.822Z,48.19
2022-09-23T05:04:20.183Z,48.37
2022-09-23T05:06:49.286Z,48.31
2022-09-23T05:09:18.804Z,48.19
2022-09-23T05:11:47.396Z,48.24
2022-09-23T05:14:15.998Z,48.32
2022-09-23T05:16:45.780Z,48.21
2022-09-23T05:19:14.216Z,48.28
2022-09-23T05:21:42.550Z,48.13
2022-09-23T05:24:10.927Z,48.15
2022-09-23T05:26:39.406Z,48.11
2022-09-23T05:29:07.983Z,48.21
2022-09-23T05:31:36.935Z,48.07
2022-09-23T05:34:07.337Z,48.22
2022-09-23T05:36:39.010Z,48.19
2022-09-23T05:39:09.231Z,48.06
2022-09-23T05:41:38.328Z,48.22
2022-09-23T05:44:06.849Z,48.13
2022-09-23T05:46:35.569Z,48.12
2022-09-23T05:49:07.566Z,48.24
2022-09-23T05:51:36.560Z,48.17
2022-09-23T05:54:05.811Z,48.29
2022-09-23T05:56:35.738Z,48.35
2022-09-23T05:59:05.723Z,48.26
2022-09-23T06:01:36.799Z,48.29
2022-09-23T06:04:08.670Z,48.27
2022-09-23T06:06:40.137Z,48.26
2022-09-23T06:09:13.490Z,48.10
2022-09-23T06:11:42.530Z,48.02
2022-09-23T06:14:13.955Z,48.08
2022-09-23T06:16:43.168Z,48.16
2022-09-23T06:19:13.023Z,48.05
2022-09-23T06:21:41.954Z,47.74
2022-09-23T06:24:14.878Z,47.96
2022-09-23T06:26:45.160Z,48.02
2022-09-23T06:29:14.554Z,47.98
2022-09-23T06:31:43.461Z,47.86
2022-09-23T06:34:14.971Z,48.03
2022-09-23T06:36:45.848Z,47.84
2022-09-23T06:39:15.761Z,47.83
2022-09-23T06:41:44.765Z,47.90
2022-09-23T06:44:13.429Z,47.95
2022-09-23T06:46:41.958Z,47.72
2022-09-23T06:49:13.491Z,47.70
2022-09-23T06:51:43.474Z,47.66
2022-09-23T06:54:12.092Z,47.47
2022-09-23T06:56:40.721Z,47.26
2022-09-23T06:59:13.202Z,47.22
2022-09-23T07:01:41.787Z,47.13
2022-09-23T07:04:10.748Z,46.89
2022-09-23T07:06:39.189Z,46.88
2022-09-23T07:09:11.115Z,46.74
2022-09-23T07:11:39.501Z,46.55
2022-09-23T07:14:07.994Z,46.52
2022-09-23T07:16:36.307Z,46.43
2022-09-23T07:19:04.641Z,46.44
2022-09-23T07:21:33.365Z,46.13
2022-09-23T07:24:01.979Z,46.09
2022-09-23T07:26:34.186Z,46.01
2022-09-23T07:29:05.194Z,45.89
2022-09-23T07:31:39.661Z,45.74
2022-09-23T07:34:11.497Z,45.58
2022-09-23T07:36:41.709Z,45.50
2022-09-23T07:39:12.767Z,45.00
2022-09-23T07:41:44.612Z,44.73
2022-09-23T07:44:13.750Z,44.56
2022-09-23T07:46:42.419Z,44.32
2022-09-23T07:49:11.414Z,44.21
2022-09-23T07:51:41.891Z,43.95
2022-09-23T07:54:15.131Z,43.83
2022-09-23T07:56:45.499Z,43.60
2022-09-23T07:59:18.396Z,43.41
2022-09-23T08:01:49.027Z,43.33
2022-09-23T08:04:21.215Z,42.98
2022-09-23T08:06:52.245Z,42.95
2022-09-23T08:09:23.975Z,42.80
2022-09-23T08:11:54.193Z,42.67
2022-09-23T08:14:23.481Z,42.32
2022-09-23T08:16:52.961Z,42.47
2022-09-23T08:19:21.678Z,42.12
2022-09-23T08:21:52.260Z,42.02
2022-09-23T08:24:24.288Z,41.99
2022-09-23T08:26:55.509Z,41.80
2022-09-23T08:29:26.428Z,41.86
2022-09-23T08:31:55.725Z,41.83
2022-09-23T08:34:24.794Z,41.69
2022-09-23T08:36:53.416Z,41.30
2022-09-23T08:39:23.192Z,41.23
2022-09-23T08:42:08.270Z,41.10
2022-09-23T08:44:50.401Z,40.56
2022-09-23T08:47:24.668Z,40.61
2022-09-23T08:50:01.404Z,40.34
2022-09-23T08:52:36.979Z,40.27
2022-09-23T08:55:07.309Z,40.20
2022-09-23T08:58:02.311Z,39.75
2022-09-23T09:00:42.248Z,39.77
2022-09-23T09:03:23.949Z,39.56
2022-09-23T09:05:54.912Z,39.56
2022-09-23T09:08:29.799Z,39.15
2022-09-23T09:11:00.157Z,39.23
2022-09-23T09:13:35.739Z,38.89
2022-09-23T09:16:48.290Z,39.03
2022-09-23T09:19:43.839Z,39.23
2022-09-23T09:22:21.330Z,38.98
2022-09-23T09:24:50.982Z,38.82
2022-09-23T09:27:19.576Z,38.72
2022-09-23T09:29:53.684Z,38.23
2022-09-23T09:32:36.605Z,38.42
2022-09-23T09:35:20.167Z,38.47
2022-09-23T09:37:49.507Z,38.24
2022-09-23T09:40:20.544Z,37.93
2022-09-23T09:42:51.438Z,37.97
2022-09-23T09:45:33.900Z,37.78
2022-09-23T09:48:12.002Z,37.83
2022-09-23T09:50:49.273Z,37.48
2022-09-23T09:53:26.830Z,37.62
2022-09-23T09:56:05.975Z,37.59
2022-09-23T09:58:46.081Z,37.84
2022-09-23T10:01:24.882Z,37.66
2022-09-23T10:03:59.198Z,37.90
2022-09-23T10:06:32.512Z,37.47
2022-09-23T10:09:19.299Z,37.41
2022-09-23T10:12:14.969Z,37.83
2022-09-23T10:14:44.006Z,37.65
2022-09-23T10:17:21.329Z,37.86
2022-09-23T10:19:52.482Z,37.36
2022-09-23T10:22:29.920Z,37.14
2022-09-23T10:25:03.998Z,37.52
2022-09-23T10:27:36.057Z,37.08
2022-09-23T10:30:21.711Z,37.15
2022-09-23T10:32:54.983Z,36.72
2022-09-23T10:35:25.637Z,36.62
2022-09-23T10:37:55.818Z,36.26
2022-09-23T10:40:49.391Z,35.59
2022-09-23T10:43:46.195Z,35.63
2022-09-23T10:46:41.517Z,35.19
2022-09-23T10:50:14.211Z,34.95
2022-09-23T10:53:05.550Z,34.56
2022-09-23T10:55:49.614Z,33.95
2022-09-23T10:58:48.510Z,33.69
2022-09-23T11:01:31.247Z,32.76
2022-09-23T11:04:42.159Z,32.42
2022-09-23T11:07:23.886Z,31.47
2022-09-23T11:10:45.874Z,31.37
2022-09-23T11:13:35.768Z,30.50
2022-09-23T11:16:15.415Z,30.20
2022-09-23T11:19:06.102Z,29.34
2022-09-23T11:22:10.801Z,28.92
2022-09-23T11:25:23.872Z,28.59
2022-09-23T11:28:13.346Z,27.67
2022-09-23T11:30:54.710Z,27.24
2022-09-23T11:33:40.964Z,26.93
2022-09-23T11:36:13.634Z,26.02
2022-09-23T11:38:48.972Z,25.73
2022-09-23T11:41:24.857Z,25.38
2022-09-23T11:44:03.370Z,25.08
2022-09-23T11:46:40.072Z,23.80
2022-09-23T11:49:17.082Z,24.07
2022-09-23T11:52:02.637Z,23.49
2022-09-23T11:54:41.551Z,23.48
2022-09-23T11:57:29.228Z,22.88
2022-09-23T12:00:04.023Z,22.75
2022-09-23T12:02:58.975Z,22.58
2022-09-23T12:05:34.537Z,22.03
2022-09-23T12:08:13.445Z,21.35
2022-09-23T12:10:49.950Z,21.17
2022-09-23T12:13:27.738Z,20.58
2022-09-23T12:16:27.416Z,20.04
2022-09-23T12:19:15.689Z,19.75
2022-09-23T12:22:17.856Z,19.44
2022-09-23T12:24:55.703Z,18.92
2022-09-23T12:27:37.320Z,18.42
2022-09-23T12:30:17.791Z,18.01
2022-09-23T12:32:46.658Z,18.26
2022-09-23T12:35:32.171Z,17.72
2022-09-23T12:38:01.982Z,17.47
2022-09-23T12:40:36.563Z,16.87
2022-09-23T12:43:05.106Z,16.65
2022-09-23T12:45:40.268Z,16.59
2022-09-23T12:48:43.975Z,16.83
2022-09-23T12:51:21.792Z,16.18
2022-09-23T12:54:24.374Z,16.19
2022-09-23T12:57:05.386Z,16.37
2022-09-23T12:59:57.936Z,15.68
2022-09-23T13:02:38.478Z,15.24
2022-09-23T13:05:39.712Z,14.69
2022-09-23T13:08:13.547Z,14.71
2022-09-23T13:10:48.390Z,14.43
2022-09-23T13:13:24.682Z,14.81
2022-09-23T13:15:55.079Z,14.57
2022-09-23T13:18:54.163Z,14.49
2022-09-23T13:22:09.008Z,14.85
2022-09-23T13:24:44.521Z,13.98
2022-09-23T13:27:29.472Z,13.91
2022-09-23T13:30:06.328Z,14.11
2022-09-23T13:32:40.559Z,14.12
2022-09-23T13:35:22.771Z,13.67
2022-09-23T13:37:51.423Z,13.35
2022-09-23T13:40:24.936Z,12.62
2022-09-23T13:42:59.373Z,12.69
2022-09-23T13:45:30.998Z,12.63
2022-09-23T13:48:06.104Z,12.36
2022-09-23T13:50:40.945Z,12.38
2022-09-23T13:53:12.501Z,12.45
2022-09-23T13:55:41.684Z,12.87
2022-09-23T13:58:19.681Z,13.58
2022-09-23T14:00:49.520Z,13.96
2022-09-23T14:03:35.920Z,14.44
2022-09-23T14:06:12.879Z,15.16
2022-09-23T14:08:43.546Z,15.55
2022-09-23T14:11:17.409Z,15.89
2022-09-23T14:13:48.626Z,16.47
2022-09-23T14:16:19.695Z,16.59
2022-09-23T14:18:50.924Z,16.96
2022-09-23T14:21:35.240Z,17.59
2022-09-23T14:24:19.145Z,18.04
2022-09-23T14:26:50.891Z,18.06
2022-09-23T14:29:23.996Z,18.83
2022-09-23T14:31:57.761Z,19.12
2022-09-23T14:34:48.390Z,19.26
2022-09-23T14:37:46.833Z,19.78
2022-09-23T14:40:18.769Z,19.79
2022-09-23T14:42:51.456Z,20.35
2022-09-23T14:45:23.752Z,20.42
2022-09-23T14:47:57.965Z,20.77
2022-09-23T14:50:40.759Z,21.10
2022-09-23T14:53:34.922Z,21.13
2022-09-23T14:56:16.650Z,21.19
2022-09-23T14:58:52.689Z,21.38
2022-09-23T15:01:39.773Z,21.51
2022-09-23T15:04:30.512Z,21.53
2022-09-23T15:07:03.176Z,21.58
2022-09-23T15:09:37.123Z,21.97
2022-09-23T15:12:13.117Z,22.07
2022-09-23T15:14:46.564Z,22.28
2022-09-23T15:17:26.409Z,22.47
2022-09-23T15:19:59.763Z,22.53
2022-09-23T15:22:28.566Z,22.62
2022-09-23T15:25:17.671Z,22.78
2022-09-23T15:28:00.192Z,22.82
2022-09-23T15:30:28.839Z,23.14
2022-09-23T15:32:57.581Z,23.32
2022-09-23T15:35:27.417Z,23.48
2022-09-23T15:38:00.460Z,23.62
2022-09-23T15:40:32.488Z,23.76
2022-09-23T15:43:03.634Z,23.50
2022-09-23T15:45:37.720Z,23.88
2022-09-23T15:48:12.908Z,23.89
2022-09-23T15:50:42.793Z,24.09
2022-09-23T15:53:16.253Z,24.31
2022-09-23T15:55:46.422Z,24.31
2022-09-23T15:58:14.919Z,24.46
2022-09-23T16:00:43.467Z,24.41
2022-09-23T16:03:15.722Z,24.30
2022-09-23T16:05:46.793Z,24.38
2022-09-23T16:08:15.787Z,24.34
2022-09-23T16:10:45.662Z,24.66
2022-09-23T16:13:15.644Z,24.55
2022-09-23T16:15:44.883Z,24.75
2022-09-23T16:18:14.006Z,24.72
2022-09-23T16:20:45.488Z,25.33
2022-09-23T16:23:35.516Z,25.09
2022-09-23T16:26:08.814Z,25.53
2022-09-23T16:28:37.302Z,25.15
2022-09-23T16:31:06.338Z,25.76
2022-09-23T16:33:34.832Z,25.37
2022-09-23T16:36:03.873Z,25.90
2022-09-23T16:38:32.845Z,25.64
2022-09-23T16:41:01.479Z,25.77
2022-09-23T16:43:32.765Z,26.32
2022-09-23T16:46:01.279Z,26.07
2022-09-23T16:48:29.708Z,26.28
2022-09-23T16:50:58.171Z,26.17
2022-09-23T16:53:29.816Z,26.71
2022-09-23T16:55:59.020Z,26.47
2022-09-23T16:58:27.410Z,26.69
2022-09-23T17:01:18.065Z,26.49
2022-09-23T17:03:47.758Z,26.75
2022-09-23T17:06:19.438Z,26.96
2022-09-23T17:08:49.038Z,27.15
2022-09-23T17:11:17.665Z,27.26
2022-09-23T17:13:46.563Z,27.23
2022-09-23T17:16:26.855Z,27.33
2022-09-23T17:18:56.593Z,27.41
2022-09-23T17:21:27.005Z,27.42
2022-09-23T17:23:56.435Z,27.30
2022-09-23T17:26:27.410Z,27.59
2022-09-23T17:28:58.831Z,27.49
2022-09-23T17:31:28.806Z,27.68
2022-09-23T17:33:57.468Z,27.54
2022-09-23T17:36:25.872Z,27.61
2022-09-23T17:38:55.061Z,27.68
2022-09-23T17:41:23.450Z,27.85
2022-09-23T17:43:56.711Z,27.92
2022-09-23T17:46:25.360Z,28.10
2022-09-23T17:48:55.748Z,28.15
2022-09-23T17:51:25.659Z,28.05
2022-09-23T17:53:54.221Z,28.27
2022-09-23T17:56:25.502Z,28.21
2022-09-23T17:58:55.010Z,28.22
2022-09-23T18:01:25.552Z,28.37
2022-09-23T18:03:57.923Z,28.39
2022-09-23T18:06:28.852Z,28.53
2022-09-23T18:08:57.260Z,28.73
2022-09-23T18:11:28.048Z,28.74
2022-09-23T18:13:58.505Z,28.82
2022-09-23T18:16:29.572Z,28.75
2022-09-23T18:19:01.826Z,28.97
2022-09-23T18:21:33.804Z,28.86
2022-09-23T18:26:52.616Z,29.11
2022-09-23T18:29:20.981Z,29.17
2022-09-23T18:31:51.074Z,29.16
2022-09-23T18:34:21.268Z,29.31
2022-09-23T18:36:49.627Z,29.35
2022-09-23T18:39:18.057Z,29.38
2022-09-23T18:41:46.433Z,29.48
2022-09-23T18:44:15.883Z,29.74
2022-09-23T18:46:44.861Z,29.65
2022-09-23T18:49:30.018Z,29.73
2022-09-23T18:51:59.926Z,29.76
2022-09-23T18:54:30.401Z,29.83
2022-09-23T18:56:59.367Z,29.93
2022-09-23T18:59:29.115Z,29.99
2022-09-23T19:01:58.105Z,30.15
2022-09-23T19:04:29.008Z,30.18
2022-09-23T19:06:59.219Z,30.22
2022-09-23T19:09:27.702Z,30.42
2022-09-23T19:11:56.505Z,30.35
2022-09-23T19:14:25.531Z,30.52
2022-09-23T19:16:53.881Z,30.52
2022-09-23T19:19:22.400Z,30.49
2022-09-23T19:21:50.831Z,30.69
2022-09-23T19:24:21.090Z,30.56
2022-09-23T19:26:50.455Z,30.68
2022-09-23T19:29:21.859Z,30.79
2022-09-23T19:31:51.164Z,30.94
2022-09-23T19:34:23.968Z,30.99
2022-09-23T19:36:53.030Z,31.07
2022-09-23T19:39:24.859Z,31.15
2022-09-23T19:41:55.658Z,31.04
2022-09-23T19:44:25.231Z,31.19
2022-09-23T19:46:56.674Z,31.27
2022-09-23T19:49:26.485Z,31.37
2022-09-23T19:51:56.602Z,31.36
2022-09-23T19:54:27.567Z,31.54
2022-09-23T19:56:56.563Z,31.72
2022-09-23T19:59:26.466Z,31.87
2022-09-23T20:01:55.040Z,32.33
2022-09-23T20:04:23.940Z,32.42
2022-09-23T20:06:52.351Z,32.95
2022-09-23T20:09:21.038Z,33.16
2022-09-23T20:11:51.069Z,33.20
2022-09-23T20:14:19.464Z,33.33
2022-09-23T20:16:48.111Z,33.50
2022-09-23T20:19:16.638Z,33.52
2022-09-23T20:21:45.012Z,33.55
2022-09-23T20:24:13.748Z,33.66
2022-09-23T20:26:59.376Z,33.61
2022-09-23T20:29:29.065Z,33.76
2022-09-23T20:31:59.273Z,33.61
2022-09-23T20:34:29.924Z,33.69
2022-09-23T20:36:59.302Z,33.95
2022-09-23T20:39:28.127Z,34.13
2022-09-23T20:41:56.501Z,34.41
2022-09-23T20:44:25.126Z,34.40
2022-09-23T20:46:54.984Z,34.40
2022-09-23T20:49:23.473Z,34.73
2022-09-23T20:51:52.054Z,34.66
2022-09-23T20:54:20.472Z,34.88
2022-09-23T20:56:48.876Z,35.01
2022-09-23T20:59:18.008Z,35.29
2022-09-23T21:01:47.584Z,35.31
2022-09-23T21:04:18.278Z,35.61
2022-09-23T21:06:47.241Z,35.69
2022-09-23T21:09:15.565Z,35.56
2022-09-23T21:11:43.926Z,35.50
2022-09-23T21:14:12.309Z,35.66
2022-09-23T21:16:40.659Z,35.75
2022-09-23T21:19:09.169Z,35.56
2022-09-23T21:21:39.220Z,35.96
2022-09-23T21:24:39.781Z,35.91
2022-09-23T21:26:56.231Z,35.84
2022-09-23T21:29:24.541Z,36.11
2022-09-23T21:31:52.943Z,35.93
2022-09-23T21:34:21.358Z,36.20
2022-09-23T21:36:51.031Z,36.09
2022-09-23T21:39:19.537Z,36.39
2022-09-23T21:41:47.873Z,36.39
2022-09-23T21:44:16.234Z,36.43
2022-09-23T21:46:44.685Z,36.45
2022-09-23T21:49:13.314Z,36.59
2022-09-23T21:51:42.478Z,36.66
2022-09-23T21:54:16.970Z,36.65
2022-09-23T21:56:45.821Z,36.80
2022-09-23T21:59:14.208Z,36.71
2022-09-23T22:01:45.096Z,36.80
2022-09-23T22:04:17.607Z,36.78
2022-09-23T22:06:48.891Z,36.87
2022-09-23T22:09:21.969Z,37.01
2022-09-23T22:12:11.240Z,36.96
2022-09-23T22:14:39.751Z,36.86
2022-09-23T22:17:11.507Z,37.10
2022-09-23T22:19:46.459Z,36.96
2022-09-23T22:22:18.482Z,37.16
2022-09-23T22:24:49.707Z,37.16
2022-09-23T22:27:20.510Z,37.28
2022-09-23T22:30:06.511Z,37.46
2022-09-23T22:32:54.278Z,37.35
2022-09-23T22:35:23.598Z,37.37
2022-09-23T22:37:51.895Z,37.42
2022-09-23T22:40:24.261Z,37.57
2022-09-23T22:42:52.751Z,37.67
2022-09-23T22:45:21.233Z,37.53
2022-09-23T22:47:53.252Z,37.67
2022-09-23T22:50:21.568Z,37.96
2022-09-23T22:52:50.032Z,37.73
2022-09-23T22:55:18.552Z,37.88
2022-09-23T22:57:51.339Z,37.90
2022-09-23T23:00:20.749Z,37.90
2022-09-23T23:02:49.100Z,37.97
2022-09-23T23:05:17.636Z,38.12
2022-09-23T23:07:45.998Z,38.23
2022-09-23T23:10:17.235Z,38.12
2022-09-23T23:12:47.497Z,38.33
2022-09-23T23:15:16.357Z,38.31
2022-09-23T23:17:44.760Z,38.25
2022-09-23T23:20:13.348Z,38.48
2022-09-23T23:22:41.703Z,38.52
2022-09-23T23:25:10.854Z,38.71
2022-09-23T23:27:39.238Z,38.64
2022-09-23T23:30:10.979Z,38.80
2022-09-23T23:32:39.407Z,38.64
2022-09-23T23:35:09.130Z,38.81
2022-09-23T23:37:37.446Z,38.85
2022-09-23T23:40:07.422Z,38.89
2022-09-23T23:42:36.170Z,39.06
2022-09-23T23:45:05.388Z,39.59
2022-09-23T23:47:36.013Z,39.38
2022-09-23T23:50:05.737Z,39.42
2022-09-23T23:52:34.094Z,39.56
2022-09-23T23:55:02.521Z,39.54
2022-09-23T23:57:30.858Z,39.53
2022-09-23T23:59:59.196Z,39.75
